SBCZ/CZS METAR and TAF weather

Enter ICAO airport designator
Station Type Date Time Source
SBCZ METAR 2022/11/27 07:00 UTC NOAA

SBCZ 270700Z 06004KT 9999 FEW015 FEW025TCU BKN100 22/22 Q1010


Station Type Date Time Source
SBCZ Decoded METAR 2022/11/27 07:00 UTC NOAA

Cruzeiro Do Sul, Brazil (SBCZ) 07-38S 072-40W
Nov 27, 2022 - 02:00 AM EST / 2022.11.27 0700 UTC
Wind: from the ENE (060 degrees) at 5 MPH (4 KT):0
Visibility: greater than 7 mile(s):0
Sky conditions: mostly cloudy
Weather: Towering cumulus clouds observed
Temperature: 71 F (22 C)
Dew Point: 71 F (22 C)
Relative Humidity: 100%
Pressure (altimeter): 29.83 in. Hg (1010 hPa)
ob: SBCZ 270700Z 06004KT 9999 FEW015 FEW025TCU BKN100 22/22 Q1010
cycle: 7

Station Type Date Time Source
SBCZ TAF 2022/11/27 06:03 UTC NOAA

TAF TAF SBCZ 270045Z 2706/2806 00000KT 9999 SCT030 TN22/2708Z TX30/2719Z PROB40 2708/2711 2000 BR BKN006 PROB40 2711/2714 5000 TSRA BKN020 FEW030CB
BECMG 2714/2716 17007KT 7000 BKN015
RMK PGU

Example: see airport list